Time;durP1;ratioP1;P1;durP2;ratioP2;P2;SDS_P1;SDS_P2;PMS_P1;PMS_P2;Temp;Humidity;BMP_temperature;BMP_pressure;BME280_temperature;BME280_humidity;BME280_pressure;Samples;Min_cycle;Max_cycle;Signal;HPM_P1;HPM_P2
2023/05/11 00:01:58;;;;;;;2.60;0.70;;;;;;;;;;8168041;28;20237;-71
2023/05/11 00:05:58;;;;;;;0.73;0.70;;;;;;;;;;8200518;28;20273;-71
2023/05/11 00:09:58;;;;;;;1.48;0.75;;;;;;;;;;8184113;28;20030;-71
2023/05/11 00:13:59;;;;;;;1.08;0.73;;;;;;;;;;8182439;28;20127;-70
2023/05/11 00:17:59;;;;;;;0.97;0.67;;;;;;;;;;8163570;28;20035;-71
2023/05/11 00:22:00;;;;;;;0.60;0.60;;;;;;;;;;8161867;29;20275;-71
2023/05/11 00:26:00;;;;;;;0.93;0.70;;;;;;;;;;8154835;29;20027;-71
2023/05/11 00:30:00;;;;;;;0.93;0.80;;;;;;;;;;8157892;28;20030;-71
2023/05/11 00:34:00;;;;;;;2.50;1.05;;;;;;;;;;8187830;28;20482;-71
2023/05/11 00:38:00;;;;;;;1.05;0.60;;;;;;;;;;8194196;28;20039;-71
2023/05/11 00:42:02;;;;;;;4.68;0.80;;;;;;;;;;8183034;28;21075;-71
2023/05/11 00:46:03;;;;;;;0.60;0.60;;;;;;;;;;8181847;28;20035;-71
2023/05/11 00:50:03;;;;;;;1.65;0.70;;;;;;;;;;8185653;28;20379;-71
2023/05/11 00:54:04;;;;;;;0.70;0.70;;;;;;;;;;8195062;28;20023;-71
2023/05/11 00:58:04;;;;;;;1.33;0.75;;;;;;;;;;8195215;28;20134;-71
2023/05/11 01:02:05;;;;;;;0.95;0.80;;;;;;;;;;8188904;28;20081;-71
2023/05/11 01:06:16;;;;;;;1.10;0.88;;;;;;;;;;8187288;28;20559;-71
2023/05/11 01:10:16;;;;;;;1.80;0.70;;;;;;;;;;8184802;28;20118;-71
2023/05/11 01:14:21;;;;;;;1.23;0.88;;;;;;;;;;8184390;28;20030;-71
2023/05/11 01:18:29;;;;;;;1.60;0.80;;;;;;;;;;8187696;28;20070;-71
2023/05/11 01:22:32;;;;;;;0.80;0.80;;;;;;;;;;8183167;28;20061;-71
2023/05/11 01:26:35;;;;;;;2.10;1.10;;;;;;;;;;8184685;28;20026;-71
2023/05/11 01:30:42;;;;;;;1.03;0.80;;;;;;;;;;8183944;28;20043;-71
2023/05/11 01:34:43;;;;;;;1.58;0.90;;;;;;;;;;8184954;28;20053;-71
2023/05/11 01:38:45;;;;;;;1.10;0.85;;;;;;;;;;8184503;28;20682;-71
2023/05/11 01:42:47;;;;;;;1.20;0.70;;;;;;;;;;8183316;28;20023;-71
2023/05/11 01:46:48;;;;;;;1.75;0.65;;;;;;;;;;8183256;28;21004;-71
2023/05/11 01:50:49;;;;;;;4.60;0.95;;;;;;;;;;8184030;28;20370;-71
2023/05/11 01:54:51;;;;;;;1.55;0.82;;;;;;;;;;8184654;28;20775;-71
2023/05/11 01:58:53;;;;;;;0.80;0.80;;;;;;;;;;8203807;28;20070;-71
2023/05/11 02:02:54;;;;;;;3.22;1.00;;;;;;;;;;8167478;28;20042;-71
2023/05/11 02:06:55;;;;;;;2.45;0.77;;;;;;;;;;8158241;29;20028;-72
2023/05/11 02:10:56;;;;;;;2.10;0.88;;;;;;;;;;8162078;29;20429;-71
2023/05/11 02:14:57;;;;;;;1.92;0.95;;;;;;;;;;8156394;29;20015;-71
2023/05/11 02:18:58;;;;;;;1.75;0.95;;;;;;;;;;8156894;28;20035;-71
2023/05/11 02:22:59;;;;;;;1.33;1.00;;;;;;;;;;8162056;28;20114;-71
2023/05/11 02:26:59;;;;;;;1.00;0.90;;;;;;;;;;8153419;28;20023;-71
2023/05/11 02:31:04;;;;;;;1.40;1.10;;;;;;;;;;8158874;28;20074;-71
2023/05/11 02:35:06;;;;;;;1.23;1.13;;;;;;;;;;8158148;28;20298;-71
2023/05/11 02:39:08;;;;;;;1.35;1.25;;;;;;;;;;8165874;28;20023;-71
2023/05/11 02:43:10;;;;;;;1.52;1.10;;;;;;;;;;8167324;28;20117;-72
2023/05/11 02:47:11;;;;;;;0.98;0.98;;;;;;;;;;8154945;28;20142;-71
2023/05/11 02:51:12;;;;;;;2.20;0.90;;;;;;;;;;8155300;29;20035;-70
2023/05/11 02:55:14;;;;;;;0.98;0.85;;;;;;;;;;8160284;28;20544;-71
2023/05/11 02:59:14;;;;;;;1.10;1.02;;;;;;;;;;8154993;29;20042;-71
2023/05/11 03:03:14;;;;;;;2.47;0.80;;;;;;;;;;8161585;28;20043;-71
2023/05/11 03:07:15;;;;;;;2.58;1.13;;;;;;;;;;8157356;28;20823;-71
2023/05/11 03:11:16;;;;;;;2.58;1.00;;;;;;;;;;8161356;28;20038;-71
2023/05/11 03:15:17;;;;;;;3.28;1.10;;;;;;;;;;8151937;28;20086;-71
2023/05/11 03:19:17;;;;;;;1.13;0.80;;;;;;;;;;8165175;29;20031;-72
2023/05/11 03:23:17;;;;;;;0.87;0.87;;;;;;;;;;8164069;28;20763;-71
2023/05/11 03:27:18;;;;;;;1.42;0.90;;;;;;;;;;8152731;28;21657;-71
2023/05/11 03:31:18;;;;;;;1.48;1.10;;;;;;;;;;8163577;28;20854;-71
2023/05/11 03:35:19;;;;;;;1.20;1.10;;;;;;;;;;8185259;28;20034;-71
2023/05/11 03:39:19;;;;;;;1.10;1.05;;;;;;;;;;8187345;28;20290;-71
2023/05/11 03:43:20;;;;;;;3.40;1.17;;;;;;;;;;8186096;28;20027;-71
2023/05/11 03:47:21;;;;;;;1.75;1.20;;;;;;;;;;8184434;28;20125;-71
2023/05/11 03:51:21;;;;;;;2.20;1.17;;;;;;;;;;8186836;28;20023;-71
2023/05/11 03:55:22;;;;;;;2.63;1.25;;;;;;;;;;8186650;28;20034;-70
2023/05/11 03:59:22;;;;;;;3.00;1.20;;;;;;;;;;8192060;28;20790;-71
2023/05/11 04:03:22;;;;;;;2.45;1.42;;;;;;;;;;8161023;28;20042;-71
2023/05/11 04:07:23;;;;;;;1.48;1.10;;;;;;;;;;8155183;28;20073;-71
2023/05/11 04:11:23;;;;;;;4.07;1.10;;;;;;;;;;8153022;29;20034;-71
2023/05/11 04:15:23;;;;;;;5.80;1.10;;;;;;;;;;8154523;28;20761;-72
2023/05/11 04:19:23;;;;;;;1.10;1.00;;;;;;;;;;8151316;28;20711;-70
2023/05/11 04:23:23;;;;;;;3.80;1.10;;;;;;;;;;8155397;28;20057;-71
2023/05/11 04:27:24;;;;;;;4.07;1.30;;;;;;;;;;8156835;28;20799;-71
2023/05/11 04:31:24;;;;;;;3.53;1.42;;;;;;;;;;8151207;28;20139;-71
2023/05/11 04:35:24;;;;;;;4.53;1.50;;;;;;;;;;8153470;28;20027;-70
2023/05/11 04:39:25;;;;;;;2.72;1.80;;;;;;;;;;8154373;28;20042;-69
2023/05/11 04:43:25;;;;;;;4.83;1.60;;;;;;;;;;8165614;28;20141;-70
2023/05/11 04:47:26;;;;;;;5.18;1.70;;;;;;;;;;8153391;28;20309;-72
2023/05/11 04:51:26;;;;;;;4.30;1.75;;;;;;;;;;8149673;28;20945;-73
2023/05/11 04:55:26;;;;;;;14.27;2.30;;;;;;;;;;8148311;28;20146;-72
2023/05/11 04:59:27;;;;;;;4.63;2.33;;;;;;;;;;8150055;28;20734;-72
2023/05/11 05:03:27;;;;;;;5.63;1.90;;;;;;;;;;8155861;28;20043;-73
2023/05/11 05:07:27;;;;;;;5.00;2.28;;;;;;;;;;8152799;28;20855;-72
2023/05/11 05:11:27;;;;;;;4.75;2.30;;;;;;;;;;8153973;28;20038;-72
2023/05/11 05:15:27;;;;;;;3.70;1.80;;;;;;;;;;8155888;28;20141;-73
2023/05/11 05:19:28;;;;;;;4.05;2.10;;;;;;;;;;8192432;28;20777;-73
2023/05/11 05:23:28;;;;;;;2.35;1.83;;;;;;;;;;8187108;28;20031;-72
2023/05/11 05:27:28;;;;;;;6.47;1.87;;;;;;;;;;8190759;28;20572;-73
2023/05/11 05:31:29;;;;;;;3.53;1.60;;;;;;;;;;8189960;28;20387;-72
2023/05/11 05:35:29;;;;;;;5.85;1.55;;;;;;;;;;8168388;28;20031;-73
2023/05/11 05:39:29;;;;;;;3.63;1.73;;;;;;;;;;8162969;28;22208;-73
2023/05/11 05:43:29;;;;;;;5.78;1.73;;;;;;;;;;8159131;28;20290;-73
2023/05/11 05:47:30;;;;;;;8.80;2.05;;;;;;;;;;8156432;28;20038;-73
2023/05/11 05:51:30;;;;;;;4.93;1.70;;;;;;;;;;8160996;28;20038;-74
2023/05/11 05:55:30;;;;;;;2.80;1.92;;;;;;;;;;8170394;28;20027;-72
2023/05/11 05:59:30;;;;;;;1.95;1.75;;;;;;;;;;8168891;28;20034;-72
2023/05/11 06:03:31;;;;;;;3.25;1.77;;;;;;;;;;8190340;28;20047;-73
2023/05/11 06:07:32;;;;;;;1.73;1.63;;;;;;;;;;8193202;28;20027;-74
2023/05/11 06:11:32;;;;;;;5.03;2.22;;;;;;;;;;8189809;28;20034;-73
2023/05/11 06:15:32;;;;;;;5.32;1.52;;;;;;;;;;8196109;28;20101;-74
2023/05/11 06:19:32;;;;;;;3.97;1.75;;;;;;;;;;8201079;28;20035;-73
2023/05/11 06:23:32;;;;;;;2.67;1.70;;;;;;;;;;8191091;28;20018;-73
2023/05/11 06:27:33;;;;;;;1.88;1.48;;;;;;;;;;8201229;28;20022;-73
2023/05/11 06:31:33;;;;;;;2.47;1.55;;;;;;;;;;8178498;28;20039;-73
2023/05/11 06:35:35;;;;;;;1.83;1.30;;;;;;;;;;8159748;29;20480;-73
2023/05/11 06:39:36;;;;;;;2.97;1.45;;;;;;;;;;8158494;28;20497;-73
2023/05/11 06:43:37;;;;;;;2.83;1.30;;;;;;;;;;8182128;28;20036;-73
2023/05/11 06:47:38;;;;;;;2.42;1.30;;;;;;;;;;8160024;28;20047;-73
2023/05/11 06:51:38;;;;;;;2.45;1.48;;;;;;;;;;8164453;29;20639;-73
2023/05/11 06:55:38;;;;;;;5.03;1.50;;;;;;;;;;8154980;28;20048;-73
2023/05/11 06:59:38;;;;;;;2.70;1.40;;;;;;;;;;8164905;29;20109;-73
2023/05/11 07:03:39;;;;;;;1.58;1.20;;;;;;;;;;8166877;28;20031;-73
2023/05/11 07:07:39;;;;;;;4.30;1.50;;;;;;;;;;8167689;28;20039;-73
2023/05/11 07:11:40;;;;;;;1.60;1.50;;;;;;;;;;8167181;28;20074;-73
2023/05/11 07:15:40;;;;;;;2.03;1.10;;;;;;;;;;8155522;28;20046;-73
2023/05/11 07:19:40;;;;;;;2.60;1.58;;;;;;;;;;8156333;28;20019;-73
2023/05/11 07:23:41;;;;;;;2.53;1.58;;;;;;;;;;8156841;28;20055;-73
2023/05/11 07:27:41;;;;;;;1.75;1.40;;;;;;;;;;8156689;28;20023;-73
2023/05/11 07:31:42;;;;;;;1.63;1.52;;;;;;;;;;8155595;28;20039;-73
2023/05/11 07:35:42;;;;;;;2.35;1.48;;;;;;;;;;8157691;28;20130;-73
2023/05/11 07:39:42;;;;;;;3.47;1.45;;;;;;;;;;8155942;28;20031;-73
2023/05/11 07:43:42;;;;;;;2.47;1.40;;;;;;;;;;8155132;28;20031;-73
2023/05/11 07:47:43;;;;;;;1.60;1.50;;;;;;;;;;8159500;28;20261;-74
2023/05/11 07:51:43;;;;;;;1.67;1.40;;;;;;;;;;8155260;28;20027;-73
2023/05/11 07:55:44;;;;;;;1.30;1.20;;;;;;;;;;8154767;28;20027;-73
2023/05/11 07:59:44;;;;;;;2.08;1.25;;;;;;;;;;8154465;28;20030;-73
2023/05/11 08:03:44;;;;;;;2.58;1.50;;;;;;;;;;8155293;28;20737;-73
2023/05/11 08:07:45;;;;;;;1.20;1.15;;;;;;;;;;8154060;28;20861;-73
2023/05/11 08:11:45;;;;;;;2.35;1.10;;;;;;;;;;8172828;28;20034;-74
2023/05/11 08:15:45;;;;;;;1.52;1.30;;;;;;;;;;8156655;28;20028;-73
2023/05/11 08:19:46;;;;;;;5.03;1.20;;;;;;;;;;8152366;28;20054;-74
2023/05/11 08:23:46;;;;;;;2.20;1.30;;;;;;;;;;8154349;28;20074;-74
2023/05/11 08:27:46;;;;;;;1.33;1.13;;;;;;;;;;8157885;28;20035;-74
2023/05/11 08:31:48;;;;;;;1.73;1.30;;;;;;;;;;8162928;28;20584;-74
2023/05/11 08:35:48;;;;;;;1.30;1.20;;;;;;;;;;8155677;28;20066;-73
2023/05/11 08:39:48;;;;;;;2.97;1.15;;;;;;;;;;8155997;28;20027;-74
2023/05/11 08:43:49;;;;;;;1.35;1.20;;;;;;;;;;8155345;28;20023;-73
2023/05/11 08:47:49;;;;;;;1.23;1.13;;;;;;;;;;8163249;28;20027;-74
2023/05/11 08:51:50;;;;;;;1.30;1.20;;;;;;;;;;8152941;28;20133;-73
2023/05/11 08:55:50;;;;;;;3.67;1.20;;;;;;;;;;8153019;28;20432;-73
2023/05/11 08:59:50;;;;;;;1.17;0.95;;;;;;;;;;8152493;29;20023;-74
2023/05/11 09:03:51;;;;;;;0.93;0.90;;;;;;;;;;8161915;28;20067;-73
2023/05/11 09:07:52;;;;;;;1.20;1.10;;;;;;;;;;8163038;28;20054;-74
2023/05/11 09:11:53;;;;;;;1.40;0.85;;;;;;;;;;8160515;28;20716;-74
2023/05/11 09:15:53;;;;;;;1.25;1.00;;;;;;;;;;8156634;28;20053;-73
2023/05/11 09:19:58;;;;;;;1.50;1.10;;;;;;;;;;8158449;28;20708;-73
2023/05/11 09:23:59;;;;;;;1.08;0.98;;;;;;;;;;8163209;29;20422;-74
2023/05/11 09:27:59;;;;;;;1.25;1.15;;;;;;;;;;8155646;28;20023;-73
2023/05/11 09:32:00;;;;;;;1.10;1.00;;;;;;;;;;8168795;28;20050;-73
2023/05/11 09:36:01;;;;;;;2.08;1.00;;;;;;;;;;8158525;29;20031;-73
2023/05/11 09:40:01;;;;;;;0.90;0.90;;;;;;;;;;8155809;28;20023;-74
2023/05/11 09:44:09;;;;;;;0.80;0.80;;;;;;;;;;8165019;29;20035;-73
2023/05/11 09:48:23;;;;;;;2.17;1.00;;;;;;;;;;8156212;28;20405;-73
2023/05/11 09:52:23;;;;;;;1.17;0.80;;;;;;;;;;8160158;29;20027;-73
2023/05/11 09:56:44;;;;;;;2.38;1.70;;;;;;;;;;8158382;28;20878;-73
2023/05/11 10:00:49;;;;;;;1.45;0.95;;;;;;;;;;8156207;28;20644;-73
2023/05/11 10:04:50;;;;;;;0.80;0.80;;;;;;;;;;8155033;28;20452;-74
2023/05/11 10:08:51;;;;;;;2.03;1.10;;;;;;;;;;8159884;28;20083;-73
2023/05/11 10:12:51;;;;;;;1.13;0.98;;;;;;;;;;8162591;28;20556;-73
2023/05/11 10:16:52;;;;;;;3.55;1.00;;;;;;;;;;8154973;28;20647;-73
2023/05/11 10:20:53;;;;;;;1.35;1.00;;;;;;;;;;8164937;29;20027;-74
2023/05/11 10:24:55;;;;;;;1.20;1.10;;;;;;;;;;8160011;28;20027;-74
2023/05/11 10:28:55;;;;;;;2.58;1.10;;;;;;;;;;8157420;29;20038;-74
2023/05/11 10:32:56;;;;;;;1.20;0.98;;;;;;;;;;8156052;28;20039;-74
2023/05/11 10:36:58;;;;;;;1.55;1.10;;;;;;;;;;8158773;29;20015;-73
2023/05/11 10:41:05;;;;;;;1.58;1.10;;;;;;;;;;8157865;28;20027;-73
2023/05/11 10:45:12;;;;;;;1.55;1.00;;;;;;;;;;8156384;28;20245;-74
2023/05/11 10:49:12;;;;;;;1.33;0.85;;;;;;;;;;8157939;29;20033;-73
2023/05/11 10:53:25;;;;;;;0.90;0.82;;;;;;;;;;8164172;29;20905;-74
2023/05/11 10:57:43;;;;;;;1.35;0.90;;;;;;;;;;8159172;28;20126;-73
2023/05/11 11:01:45;;;;;;;0.90;0.90;;;;;;;;;;8167199;28;20042;-73
2023/05/11 11:05:46;;;;;;;1.95;0.80;;;;;;;;;;8159978;28;21260;-73
2023/05/11 11:09:56;;;;;;;2.45;1.20;;;;;;;;;;8157042;28;20034;-74
2023/05/11 11:13:57;;;;;;;1.63;1.00;;;;;;;;;;8156986;28;20415;-74
2023/05/11 11:18:17;;;;;;;1.77;1.00;;;;;;;;;;8156179;28;20039;-74
2023/05/11 11:22:37;;;;;;;1.58;0.80;;;;;;;;;;8155275;28;20903;-73
2023/05/11 11:26:49;;;;;;;3.05;1.40;;;;;;;;;;8159586;28;20077;-73
2023/05/11 11:31:23;;;;;;;2.45;0.90;;;;;;;;;;8156275;28;20047;-73
2023/05/11 11:35:38;;;;;;;1.50;1.00;;;;;;;;;;8174434;28;20145;-73
2023/05/11 11:39:41;;;;;;;2.88;1.50;;;;;;;;;;8155420;28;20713;-74
2023/05/11 11:43:43;;;;;;;2.20;1.00;;;;;;;;;;8158903;28;20027;-73
2023/05/11 11:48:04;;;;;;;1.00;0.90;;;;;;;;;;8183257;28;20030;-73
2023/05/11 11:52:07;;;;;;;3.92;1.90;;;;;;;;;;8196140;28;20025;-74
2023/05/11 11:56:27;;;;;;;1.15;1.00;;;;;;;;;;8189064;28;20026;-73
2023/05/11 12:00:28;;;;;;;0.93;0.93;;;;;;;;;;8181482;28;20043;-74
2023/05/11 12:04:32;;;;;;;0.90;0.90;;;;;;;;;;8153790;29;20061;-74
2023/05/11 12:08:32;;;;;;;;;;;;;;;;;;8154601;28;20023;-74
2023/05/11 12:12:32;;;;;;;4.05;1.45;;;;;;;;;;8152010;28;19926;-74
2023/05/11 12:16:32;;;;;;;1.00;1.00;;;;;;;;;;8149865;28;20039;-74
2023/05/11 12:20:33;;;;;;;2.00;1.13;;;;;;;;;;8151571;28;20357;-74
2023/05/11 12:24:33;;;;;;;2.00;1.10;;;;;;;;;;8149713;28;20074;-74
2023/05/11 12:28:33;;;;;;;1.20;1.10;;;;;;;;;;8154120;28;20479;-73
2023/05/11 12:32:33;;;;;;;4.17;1.27;;;;;;;;;;8152093;28;20583;-74
2023/05/11 12:36:33;;;;;;;2.95;1.10;;;;;;;;;;8154204;28;20499;-75
2023/05/11 12:40:34;;;;;;;2.80;1.20;;;;;;;;;;8152968;28;20027;-74
2023/05/11 12:44:35;;;;;;;3.03;1.30;;;;;;;;;;8158248;28;20306;-74
2023/05/11 12:48:35;;;;;;;3.17;1.27;;;;;;;;;;8163110;28;20035;-74
2023/05/11 12:52:35;;;;;;;4.97;1.40;;;;;;;;;;8153546;28;21357;-75
2023/05/11 12:56:48;;;;;;;2.35;1.40;;;;;;;;;;8151458;28;20038;-75
2023/05/11 13:00:49;;;;;;;7.47;4.25;;;;;;;;;;8154089;28;20629;-76
2023/05/11 13:04:49;;;;;;;4.13;1.60;;;;;;;;;;8153859;28;20038;-75
2023/05/11 13:08:50;;;;;;;2.45;1.30;;;;;;;;;;8152973;28;20031;-75
2023/05/11 13:12:50;;;;;;;3.42;1.50;;;;;;;;;;8151813;28;20023;-74
2023/05/11 13:16:53;;;;;;;2.10;1.48;;;;;;;;;;8152661;28;20424;-75
2023/05/11 13:21:03;;;;;;;12.48;7.53;;;;;;;;;;8152015;28;20057;-74
2023/05/11 13:25:04;;;;;;;8.55;5.47;;;;;;;;;;8158245;28;20098;-74
2023/05/11 13:29:04;;;;;;;5.20;3.95;;;;;;;;;;8152392;28;20031;-74
2023/05/11 13:33:04;;;;;;;3.35;2.78;;;;;;;;;;8159312;28;20797;-73
2023/05/11 13:37:05;;;;;;;3.95;2.85;;;;;;;;;;8155025;28;20011;-74
2023/05/11 13:41:06;;;;;;;2.50;2.30;;;;;;;;;;8151186;28;20126;-74
2023/05/11 13:45:06;;;;;;;2.60;2.20;;;;;;;;;;8148163;28;20379;-75
2023/05/11 13:49:07;;;;;;;43.80;27.38;;;;;;;;;;8183439;28;20027;-73
2023/05/11 13:53:07;;;;;;;12.63;7.72;;;;;;;;;;8190537;28;20019;-73
2023/05/11 13:57:07;;;;;;;21.48;12.13;;;;;;;;;;8199918;28;20683;-74
2023/05/11 14:01:07;;;;;;;7.55;4.57;;;;;;;;;;8198915;28;21005;-73
2023/05/11 14:05:08;;;;;;;46.92;30.08;;;;;;;;;;8191745;28;20038;-73
2023/05/11 14:09:08;;;;;;;13.70;9.10;;;;;;;;;;8204006;28;20464;-73
2023/05/11 14:13:08;;;;;;;11.07;6.78;;;;;;;;;;8182619;28;20285;-73
2023/05/11 14:17:09;;;;;;;14.70;10.65;;;;;;;;;;8186319;28;20038;-73
2023/05/11 14:21:10;;;;;;;4.47;3.72;;;;;;;;;;8197373;28;20066;-73
2023/05/11 14:25:10;;;;;;;4.45;2.90;;;;;;;;;;8183442;28;20030;-72
2023/05/11 14:29:10;;;;;;;3.35;2.35;;;;;;;;;;8184810;28;20027;-73
2023/05/11 14:33:11;;;;;;;9.10;2.30;;;;;;;;;;8164390;28;20590;-73
2023/05/11 14:37:12;;;;;;;3.92;2.22;;;;;;;;;;8158526;28;20808;-73
2023/05/11 14:41:12;;;;;;;2.05;1.90;;;;;;;;;;8154852;28;20406;-73
2023/05/11 14:45:12;;;;;;;1.90;1.70;;;;;;;;;;8156868;28;20031;-73
2023/05/11 14:49:12;;;;;;;2.00;1.35;;;;;;;;;;8160845;28;20035;-73
2023/05/11 14:53:13;;;;;;;2.22;1.60;;;;;;;;;;8158207;28;20520;-73
2023/05/11 14:57:13;;;;;;;2.40;1.45;;;;;;;;;;8158343;28;20391;-72
2023/05/11 15:01:13;;;;;;;3.35;1.40;;;;;;;;;;8174511;28;20054;-73
2023/05/11 15:05:13;;;;;;;1.40;1.30;;;;;;;;;;8193177;28;20134;-73
2023/05/11 15:09:13;;;;;;;1.40;1.30;;;;;;;;;;8192871;28;20026;-73
2023/05/11 15:13:14;;;;;;;2.05;1.67;;;;;;;;;;8189853;28;20037;-76
2023/05/11 15:17:14;;;;;;;1.55;1.45;;;;;;;;;;8173341;28;20181;-73
2023/05/11 15:21:14;;;;;;;1.50;1.40;;;;;;;;;;8160196;28;20460;-73
2023/05/11 15:25:14;;;;;;;2.05;1.60;;;;;;;;;;8160499;28;20031;-73
2023/05/11 15:29:15;;;;;;;1.58;1.48;;;;;;;;;;8154922;28;20034;-73
2023/05/11 15:33:15;;;;;;;1.42;1.33;;;;;;;;;;8158449;28;20062;-73
2023/05/11 15:37:16;;;;;;;1.50;1.37;;;;;;;;;;8161492;28;20042;-73
2023/05/11 15:41:16;;;;;;;1.20;1.13;;;;;;;;;;8161325;28;20365;-73
2023/05/11 15:45:16;;;;;;;1.77;1.27;;;;;;;;;;8156171;28;20688;-73
2023/05/11 15:49:17;;;;;;;2.08;1.20;;;;;;;;;;8164539;28;20754;-73
2023/05/11 15:53:17;;;;;;;2.97;1.10;;;;;;;;;;8163037;28;20093;-73
2023/05/11 15:57:17;;;;;;;1.30;1.10;;;;;;;;;;8156614;28;20481;-72
2023/05/11 16:01:18;;;;;;;2.38;1.63;;;;;;;;;;8155410;28;20044;-73
2023/05/11 16:05:18;;;;;;;2.22;1.52;;;;;;;;;;8156093;28;20030;-73
2023/05/11 16:09:18;;;;;;;3.35;2.30;;;;;;;;;;8152781;28;20031;-74
2023/05/11 16:13:18;;;;;;;2.25;2.05;;;;;;;;;;8156505;28;20518;-74
2023/05/11 16:17:19;;;;;;;2.55;1.70;;;;;;;;;;8159249;28;20046;-74
2023/05/11 16:21:19;;;;;;;1.42;1.30;;;;;;;;;;8154933;28;21110;-74
2023/05/11 16:25:19;;;;;;;1.53;1.43;;;;;;;;;;8152783;28;20038;-75
2023/05/11 16:29:20;;;;;;;1.77;1.67;;;;;;;;;;8154520;28;20027;-74
2023/05/11 16:33:20;;;;;;;2.72;1.70;;;;;;;;;;8189204;28;20122;-74
2023/05/11 16:37:20;;;;;;;1.80;1.40;;;;;;;;;;8195917;28;20883;-74
2023/05/11 16:41:20;;;;;;;2.90;1.45;;;;;;;;;;8184298;28;20022;-74
2023/05/11 16:45:20;;;;;;;2.22;1.55;;;;;;;;;;8184451;28;20030;-75
2023/05/11 16:49:21;;;;;;;1.83;1.70;;;;;;;;;;8154576;28;20826;-74
2023/05/11 16:53:25;;;;;;;2.92;1.83;;;;;;;;;;8153691;28;20106;-74
2023/05/11 16:57:26;;;;;;;1.67;1.52;;;;;;;;;;8159017;28;20039;-74
2023/05/11 17:01:27;;;;;;;2.15;1.30;;;;;;;;;;8157206;28;20039;-74
2023/05/11 17:05:27;;;;;;;1.98;1.40;;;;;;;;;;8154844;28;20015;-74
2023/05/11 17:09:27;;;;;;;2.53;1.60;;;;;;;;;;8162621;28;20446;-74
2023/05/11 17:13:27;;;;;;;1.30;1.17;;;;;;;;;;8158433;28;20023;-74
2023/05/11 17:17:28;;;;;;;1.52;1.42;;;;;;;;;;8151251;28;20107;-74
2023/05/11 17:21:28;;;;;;;1.63;1.50;;;;;;;;;;8155833;28;20114;-74
2023/05/11 17:25:28;;;;;;;1.50;1.38;;;;;;;;;;8154378;28;20151;-74
2023/05/11 17:29:29;;;;;;;1.95;1.42;;;;;;;;;;8156884;28;20658;-74
2023/05/11 17:33:30;;;;;;;3.28;1.40;;;;;;;;;;8172276;28;20067;-73
2023/05/11 17:37:30;;;;;;;1.52;1.42;;;;;;;;;;8155456;28;20038;-73
2023/05/11 17:41:30;;;;;;;4.70;1.52;;;;;;;;;;8157612;28;20035;-74
2023/05/11 17:45:30;;;;;;;2.43;1.60;;;;;;;;;;8158803;28;20043;-73
2023/05/11 17:49:31;;;;;;;1.90;1.40;;;;;;;;;;8155592;29;20054;-73
2023/05/11 17:53:31;;;;;;;1.65;1.42;;;;;;;;;;8161475;29;20081;-74
2023/05/11 17:57:32;;;;;;;2.90;1.47;;;;;;;;;;8155230;28;20820;-74
2023/05/11 18:01:33;;;;;;;3.25;1.60;;;;;;;;;;8155382;28;20086;-74
2023/05/11 18:05:34;;;;;;;2.42;1.90;;;;;;;;;;8155585;28;20437;-74
2023/05/11 18:09:34;;;;;;;1.88;1.77;;;;;;;;;;8156647;29;20551;-74
2023/05/11 18:13:35;;;;;;;2.47;1.80;;;;;;;;;;8157690;28;20102;-74
2023/05/11 18:17:35;;;;;;;1.85;1.70;;;;;;;;;;8160032;28;20528;-73
2023/05/11 18:21:35;;;;;;;3.20;1.70;;;;;;;;;;8158912;28;20030;-73
2023/05/11 18:25:35;;;;;;;3.05;1.60;;;;;;;;;;8161151;28;20050;-73
2023/05/11 18:29:36;;;;;;;3.50;1.80;;;;;;;;;;8161509;28;20042;-73
2023/05/11 18:33:36;;;;;;;3.40;1.73;;;;;;;;;;8187396;28;20043;-71
2023/05/11 18:37:36;;;;;;;1.75;1.65;;;;;;;;;;8186670;28;20566;-72
2023/05/11 18:41:37;;;;;;;2.63;1.80;;;;;;;;;;8196893;28;20065;-73
2023/05/11 18:45:39;;;;;;;2.13;1.80;;;;;;;;;;8186913;28;20100;-73
2023/05/11 18:49:40;;;;;;;2.78;2.03;;;;;;;;;;8154765;29;20057;-73
2023/05/11 18:53:40;;;;;;;2.35;2.15;;;;;;;;;;8156224;28;20030;-72
2023/05/11 18:57:41;;;;;;;1.90;1.80;;;;;;;;;;8156993;28;20709;-72
2023/05/11 19:01:41;;;;;;;3.83;2.05;;;;;;;;;;8158292;28;20032;-73
2023/05/11 19:05:42;;;;;;;3.13;1.90;;;;;;;;;;8157650;28;20142;-73
2023/05/11 19:09:43;;;;;;;2.20;2.10;;;;;;;;;;8155885;28;20027;-74
2023/05/11 19:13:43;;;;;;;2.33;2.10;;;;;;;;;;8158626;28;20067;-73
2023/05/11 19:17:43;;;;;;;2.47;2.28;;;;;;;;;;8180867;28;20038;-73
2023/05/11 19:21:44;;;;;;;2.45;2.25;;;;;;;;;;8189041;28;20140;-72
2023/05/11 19:25:44;;;;;;;2.60;2.40;;;;;;;;;;8192338;28;20100;-72
2023/05/11 19:29:44;;;;;;;3.17;2.42;;;;;;;;;;8188893;28;20026;-72
2023/05/11 19:33:45;;;;;;;3.63;2.53;;;;;;;;;;8163981;28;20956;-72
2023/05/11 19:37:47;;;;;;;2.38;2.15;;;;;;;;;;8164197;28;20555;-72
2023/05/11 19:41:47;;;;;;;2.60;1.98;;;;;;;;;;8153566;29;20031;-72
2023/05/11 19:45:47;;;;;;;2.60;2.40;;;;;;;;;;8152411;28;20051;-72
2023/05/11 19:49:47;;;;;;;3.42;2.28;;;;;;;;;;8150547;28;20047;-72
2023/05/11 19:53:47;;;;;;;2.30;2.10;;;;;;;;;;8157400;28;20073;-70
2023/05/11 19:57:48;;;;;;;2.63;1.85;;;;;;;;;;8165516;28;20031;-71
2023/05/11 20:01:48;;;;;;;2.67;2.05;;;;;;;;;;8156284;28;20832;-71
2023/05/11 20:05:48;;;;;;;3.80;2.20;;;;;;;;;;8156120;28;20059;-71
2023/05/11 20:09:48;;;;;;;4.88;3.70;;;;;;;;;;8154776;28;20051;-72
2023/05/11 20:13:49;;;;;;;3.97;3.17;;;;;;;;;;8153703;28;20019;-72
2023/05/11 20:17:49;;;;;;;10.32;5.15;;;;;;;;;;8175670;28;20043;-72
2023/05/11 20:21:50;;;;;;;6.72;3.58;;;;;;;;;;8187592;28;20022;-72
2023/05/11 20:25:50;;;;;;;5.03;3.58;;;;;;;;;;8183795;28;20518;-72
2023/05/11 20:29:51;;;;;;;4.18;2.28;;;;;;;;;;8185717;28;20925;-72
2023/05/11 20:33:51;;;;;;;5.82;2.10;;;;;;;;;;8187902;28;20035;-72
2023/05/11 20:37:52;;;;;;;2.75;2.20;;;;;;;;;;8183939;28;20050;-72
2023/05/11 20:41:52;;;;;;;4.82;2.50;;;;;;;;;;8185868;28;20070;-72
2023/05/11 20:45:52;;;;;;;3.08;2.78;;;;;;;;;;8180554;28;20041;-72
2023/05/11 20:49:53;;;;;;;3.20;3.00;;;;;;;;;;8154109;28;20035;-72
2023/05/11 20:53:53;;;;;;;4.13;3.70;;;;;;;;;;8155939;28;20382;-72
2023/05/11 20:57:53;;;;;;;5.90;5.22;;;;;;;;;;8168524;28;20036;-72
2023/05/11 21:01:53;;;;;;;4.45;3.53;;;;;;;;;;8152942;28;20031;-72
2023/05/11 21:05:54;;;;;;;3.55;3.17;;;;;;;;;;8169346;28;20114;-72
2023/05/11 21:09:55;;;;;;;4.43;3.40;;;;;;;;;;8159022;28;20035;-73
2023/05/11 21:13:55;;;;;;;3.10;2.70;;;;;;;;;;8158045;28;20048;-73
2023/05/11 21:17:55;;;;;;;3.55;2.30;;;;;;;;;;8153449;28;20816;-72
2023/05/11 21:21:55;;;;;;;4.72;3.00;;;;;;;;;;8154366;28;20023;-71
2023/05/11 21:25:56;;;;;;;3.87;2.57;;;;;;;;;;8162263;28;20031;-71
2023/05/11 21:29:56;;;;;;;3.30;2.80;;;;;;;;;;8159989;28;20536;-71
2023/05/11 21:33:56;;;;;;;3.05;2.70;;;;;;;;;;8154745;28;20258;-72
2023/05/11 21:37:57;;;;;;;3.10;2.80;;;;;;;;;;8152714;28;20082;-72
2023/05/11 21:41:57;;;;;;;3.70;2.63;;;;;;;;;;8153999;28;20046;-72
2023/05/11 21:45:57;;;;;;;3.13;2.83;;;;;;;;;;8159369;28;20039;-72
2023/05/11 21:49:58;;;;;;;4.10;2.75;;;;;;;;;;8198669;28;20027;-72
2023/05/11 21:53:59;;;;;;;4.78;3.13;;;;;;;;;;8190527;28;20023;-72
2023/05/11 21:58:00;;;;;;;4.60;2.60;;;;;;;;;;8197246;28;20146;-71
2023/05/11 22:02:01;;;;;;;3.50;2.80;;;;;;;;;;8169246;28;20042;-72
2023/05/11 22:06:01;;;;;;;3.78;3.15;;;;;;;;;;8160045;29;20114;-71
2023/05/11 22:10:01;;;;;;;4.10;2.90;;;;;;;;;;8154608;28;20101;-72
2023/05/11 22:14:02;;;;;;;5.57;3.03;;;;;;;;;;8161434;28;20028;-72
2023/05/11 22:18:02;;;;;;;3.13;2.75;;;;;;;;;;8162452;28;20294;-72
2023/05/11 22:22:02;;;;;;;2.73;2.53;;;;;;;;;;8160779;28;20142;-72
2023/05/11 22:26:03;;;;;;;2.75;2.55;;;;;;;;;;8168446;28;20279;-72
2023/05/11 22:30:03;;;;;;;3.05;2.80;;;;;;;;;;8163801;29;20031;-71
2023/05/11 22:34:03;;;;;;;3.22;2.95;;;;;;;;;;8160660;28;20693;-71
2023/05/11 22:38:04;;;;;;;3.15;2.95;;;;;;;;;;8162359;28;20055;-71
2023/05/11 22:42:04;;;;;;;3.87;3.10;;;;;;;;;;8159279;28;20082;-72
2023/05/11 22:46:04;;;;;;;2.70;2.50;;;;;;;;;;8157837;28;20283;-72
2023/05/11 22:50:08;;;;;;;3.20;2.83;;;;;;;;;;8156777;28;20019;-72
2023/05/11 22:54:08;;;;;;;3.03;2.83;;;;;;;;;;8158841;28;20127;-72
2023/05/11 22:58:09;;;;;;;2.67;2.47;;;;;;;;;;8156474;28;20077;-72
2023/05/11 23:02:09;;;;;;;4.05;2.83;;;;;;;;;;8160786;28;21043;-72
2023/05/11 23:06:09;;;;;;;3.17;2.80;;;;;;;;;;8166525;28;20121;-72
2023/05/11 23:10:09;;;;;;;4.07;2.92;;;;;;;;;;8158735;28;20037;-71
2023/05/11 23:14:10;;;;;;;2.90;2.70;;;;;;;;;;8156064;28;20097;-72
2023/05/11 23:18:10;;;;;;;4.07;2.20;;;;;;;;;;8165477;28;20031;-72
2023/05/11 23:22:10;;;;;;;2.83;2.55;;;;;;;;;;8157361;28;20027;-71
2023/05/11 23:26:11;;;;;;;3.50;2.60;;;;;;;;;;8156022;28;20097;-71
2023/05/11 23:30:11;;;;;;;2.92;2.15;;;;;;;;;;8158480;28;20035;-72
2023/05/11 23:34:11;;;;;;;2.60;2.40;;;;;;;;;;8194378;28;20030;-71
2023/05/11 23:38:12;;;;;;;3.05;2.75;;;;;;;;;;8186797;28;20035;-71
2023/05/11 23:42:12;;;;;;;2.70;2.50;;;;;;;;;;8189389;28;20503;-72
2023/05/11 23:46:12;;;;;;;3.50;2.50;;;;;;;;;;8184609;28;20765;-72
2023/05/11 23:50:12;;;;;;;3.47;2.67;;;;;;;;;;8160520;28;20023;-72
2023/05/11 23:54:13;;;;;;;3.05;2.58;;;;;;;;;;8154350;28;20031;-72
2023/05/11 23:58:13;;;;;;;3.78;2.67;;;;;;;;;;8158518;28;20107;-72
